Time;durP1;ratioP1;P1;durP2;ratioP2;P2;SDS_P1;SDS_P2;PMS_P1;PMS_P2;Temp;Humidity;BMP_temperature;BMP_pressure;BME280_temperature;BME280_humidity;BME280_pressure;Samples;Min_cycle;Max_cycle;Signal;HPM_P1;HPM_P2
2022/10/11 00:01:18;;;;;;;0.03;0.03;;;;;;;;;;4950104;28;20214;-65
2022/10/11 00:03:45;;;;;;;0.00;0.00;;;;;;;;;;4953658;28;20731;-66
2022/10/11 00:06:12;;;;;;;0.00;0.00;;;;;;;;;;4954916;28;20202;-65
2022/10/11 00:08:41;;;;;;;0.00;0.00;;;;;;;;;;4951053;28;20225;-66
2022/10/11 00:11:09;;;;;;;0.00;0.00;;;;;;;;;;4958409;28;20202;-65
2022/10/11 00:13:36;;;;;;;0.00;0.00;;;;;;;;;;4955027;28;20217;-66
2022/10/11 00:16:07;;;;;;;0.00;0.00;;;;;;;;;;4963898;28;20202;-65
2022/10/11 00:18:34;;;;;;;0.10;0.10;;;;;;;;;;4964119;28;20222;-65
2022/10/11 00:21:02;;;;;;;0.00;0.00;;;;;;;;;;4949952;28;20923;-66
2022/10/11 00:23:30;;;;;;;0.00;0.00;;;;;;;;;;4948132;28;20214;-65
2022/10/11 00:25:59;;;;;;;0.10;0.10;;;;;;;;;;4953689;28;20207;-66
2022/10/11 00:28:27;;;;;;;0.00;0.00;;;;;;;;;;4954814;28;20225;-65
2022/10/11 00:30:54;;;;;;;0.00;0.00;;;;;;;;;;4952019;28;20204;-66
2022/10/11 00:33:21;;;;;;;0.00;0.00;;;;;;;;;;4966597;28;20202;-66
2022/10/11 00:35:49;;;;;;;0.07;0.07;;;;;;;;;;4949072;28;20854;-65
2022/10/11 00:38:16;;;;;;;0.00;0.00;;;;;;;;;;4964964;28;20226;-65
2022/10/11 00:40:44;;;;;;;0.00;0.00;;;;;;;;;;4949705;28;20635;-66
2022/10/11 00:43:15;;;;;;;0.03;0.03;;;;;;;;;;4966451;28;20265;-65
2022/10/11 00:46:00;;;;;;;0.00;0.00;;;;;;;;;;4956208;28;20278;-66
2022/10/11 00:48:29;;;;;;;0.00;0.00;;;;;;;;;;4969154;28;20226;-66
2022/10/11 00:50:58;;;;;;;0.00;0.00;;;;;;;;;;4971758;28;20201;-65
2022/10/11 00:53:26;;;;;;;0.00;0.00;;;;;;;;;;4954582;28;20194;-65
2022/10/11 00:55:55;;;;;;;0.00;0.00;;;;;;;;;;4949833;28;20202;-66
2022/10/11 00:58:25;;;;;;;0.00;0.00;;;;;;;;;;4956610;28;20230;-66
2022/10/11 01:00:52;;;;;;;0.10;0.10;;;;;;;;;;4956830;28;20194;-65
2022/10/11 01:03:22;;;;;;;0.10;0.10;;;;;;;;;;4954935;28;20227;-66
2022/10/11 01:05:49;;;;;;;0.00;0.00;;;;;;;;;;4969054;28;20227;-66
2022/10/11 01:08:17;;;;;;;0.00;0.00;;;;;;;;;;4969976;28;20226;-66
2022/10/11 01:10:44;;;;;;;0.00;0.00;;;;;;;;;;4967937;28;20221;-65
2022/10/11 01:13:18;;;;;;;0.10;0.10;;;;;;;;;;4960877;28;20319;-65
2022/10/11 01:15:48;;;;;;;0.00;0.00;;;;;;;;;;4970040;28;20202;-66
2022/10/11 01:18:20;;;;;;;0.00;0.00;;;;;;;;;;4969937;28;20324;-65
2022/10/11 01:20:55;;;;;;;0.00;0.00;;;;;;;;;;4970654;28;20198;-64
2022/10/11 01:23:48;;;;;;;0.00;0.00;;;;;;;;;;4952753;28;20244;-65
2022/10/11 01:26:42;;;;;;;0.00;0.00;;;;;;;;;;4968654;28;20304;-66
2022/10/11 01:29:13;;;;;;;0.00;0.00;;;;;;;;;;4956479;28;20199;-64
2022/10/11 01:31:47;;;;;;;0.10;0.10;;;;;;;;;;4952410;28;20205;-65
2022/10/11 01:34:18;;;;;;;0.10;0.10;;;;;;;;;;4949031;28;20304;-66
2022/10/11 01:36:47;;;;;;;0.00;0.00;;;;;;;;;;4968890;28;20211;-66
2022/10/11 01:39:17;;;;;;;0.00;0.00;;;;;;;;;;4968448;28;20203;-65
2022/10/11 01:41:47;;;;;;;0.10;0.10;;;;;;;;;;4955270;28;20294;-66
2022/10/11 01:44:15;;;;;;;0.00;0.00;;;;;;;;;;4969757;28;20261;-66
2022/10/11 01:46:44;;;;;;;0.00;0.00;;;;;;;;;;4954643;28;20198;-66
2022/10/11 01:49:11;;;;;;;0.00;0.00;;;;;;;;;;4954264;28;20292;-68
2022/10/11 01:51:40;;;;;;;0.00;0.00;;;;;;;;;;4948011;28;20206;-69
2022/10/11 01:54:18;;;;;;;0.10;0.10;;;;;;;;;;4951011;28;20213;-68
2022/10/11 01:56:52;;;;;;;0.10;0.10;;;;;;;;;;4954869;28;20206;-69
2022/10/11 01:59:23;;;;;;;0.10;0.10;;;;;;;;;;4955917;28;20207;-68
2022/10/11 02:01:58;;;;;;;0.00;0.00;;;;;;;;;;4956071;28;20221;-70
2022/10/11 02:04:29;;;;;;;0.00;0.00;;;;;;;;;;4952496;28;20226;-68
2022/10/11 02:06:59;;;;;;;0.10;0.10;;;;;;;;;;4953338;28;20226;-70
2022/10/11 02:09:31;;;;;;;0.10;0.10;;;;;;;;;;4958482;28;20216;-69
2022/10/11 02:12:02;;;;;;;0.10;0.10;;;;;;;;;;4950738;28;20210;-68
2022/10/11 02:14:32;;;;;;;0.10;0.10;;;;;;;;;;4966525;28;20217;-65
2022/10/11 02:17:06;;;;;;;0.00;0.00;;;;;;;;;;4952036;28;20226;-65
2022/10/11 02:19:37;;;;;;;0.10;0.10;;;;;;;;;;4964766;28;20218;-65
2022/10/11 02:22:06;;;;;;;0.10;0.10;;;;;;;;;;4952962;28;20206;-66
2022/10/11 02:24:35;;;;;;;0.10;0.10;;;;;;;;;;4952983;28;20225;-65
2022/10/11 02:27:04;;;;;;;0.10;0.10;;;;;;;;;;4968099;28;20226;-65
2022/10/11 02:29:34;;;;;;;0.10;0.10;;;;;;;;;;4967815;28;20208;-66
2022/10/11 02:32:04;;;;;;;0.00;0.00;;;;;;;;;;4957002;28;20214;-65
2022/10/11 02:34:34;;;;;;;0.10;0.10;;;;;;;;;;4969197;28;20198;-65
2022/10/11 02:37:04;;;;;;;0.00;0.00;;;;;;;;;;4950954;28;20285;-66
2022/10/11 02:39:35;;;;;;;0.00;0.00;;;;;;;;;;4966590;28;20206;-65
2022/10/11 02:42:05;;;;;;;0.10;0.10;;;;;;;;;;4957301;28;20245;-65
2022/10/11 02:44:35;;;;;;;0.10;0.10;;;;;;;;;;4970091;28;20226;-66
2022/10/11 02:47:05;;;;;;;0.10;0.10;;;;;;;;;;4955101;28;20222;-66
2022/10/11 02:49:33;;;;;;;0.10;0.10;;;;;;;;;;4966569;28;20199;-66
2022/10/11 02:52:00;;;;;;;0.10;0.10;;;;;;;;;;4967981;28;20254;-65
2022/10/11 02:54:27;;;;;;;0.10;0.10;;;;;;;;;;4950353;28;20202;-66
2022/10/11 02:56:55;;;;;;;0.10;0.10;;;;;;;;;;4951204;28;20214;-65
2022/10/11 02:59:22;;;;;;;0.10;0.10;;;;;;;;;;4951398;28;20207;-65
2022/10/11 03:01:50;;;;;;;0.10;0.10;;;;;;;;;;4966556;28;20205;-65
2022/10/11 03:04:19;;;;;;;0.10;0.10;;;;;;;;;;4971512;28;20232;-66
2022/10/11 03:06:46;;;;;;;0.07;0.07;;;;;;;;;;4965190;28;20282;-66
2022/10/11 03:09:13;;;;;;;0.10;0.10;;;;;;;;;;4951722;28;20313;-66
2022/10/11 03:11:41;;;;;;;0.00;0.00;;;;;;;;;;4964835;28;20691;-66
2022/10/11 03:14:08;;;;;;;0.03;0.03;;;;;;;;;;4958435;28;20260;-66
2022/10/11 03:16:35;;;;;;;0.10;0.10;;;;;;;;;;4951578;28;20206;-66
2022/10/11 03:19:03;;;;;;;0.10;0.10;;;;;;;;;;4950171;28;20210;-67
2022/10/11 03:21:32;;;;;;;0.10;0.10;;;;;;;;;;4953643;28;20253;-65
2022/10/11 03:23:59;;;;;;;0.10;0.10;;;;;;;;;;4950343;28;20229;-66
2022/10/11 03:26:27;;;;;;;0.10;0.10;;;;;;;;;;4954649;28;20205;-68
2022/10/11 03:28:54;;;;;;;0.10;0.10;;;;;;;;;;4967731;28;20210;-68
2022/10/11 03:31:22;;;;;;;0.00;0.00;;;;;;;;;;4953043;28;20209;-67
2022/10/11 03:33:50;;;;;;;0.10;0.10;;;;;;;;;;4968862;28;20217;-68
2022/10/11 03:36:17;;;;;;;0.10;0.10;;;;;;;;;;4965814;28;20284;-69
2022/10/11 03:38:46;;;;;;;0.00;0.00;;;;;;;;;;4946882;28;20250;-69
2022/10/11 03:41:13;;;;;;;0.00;0.00;;;;;;;;;;4950517;28;20202;-67
2022/10/11 03:43:41;;;;;;;0.10;0.10;;;;;;;;;;4952291;28;20258;-65
2022/10/11 03:46:08;;;;;;;0.10;0.10;;;;;;;;;;4951269;28;20622;-64
2022/10/11 03:48:35;;;;;;;0.10;0.10;;;;;;;;;;4954208;28;20719;-66
2022/10/11 03:51:03;;;;;;;0.00;0.00;;;;;;;;;;4967712;28;20268;-65
2022/10/11 03:53:30;;;;;;;0.10;0.10;;;;;;;;;;4970270;28;20648;-65
2022/10/11 03:55:59;;;;;;;0.10;0.10;;;;;;;;;;4957671;28;20210;-66
2022/10/11 03:58:26;;;;;;;0.10;0.10;;;9.80;99.90;;;;;;4948187;28;20684;-66
2022/10/11 04:00:53;;;;;;;0.10;0.10;;;9.30;99.90;;;;;;4967860;28;20626;-66
2022/10/11 04:03:20;;;;;;;0.00;0.00;;;9.30;99.90;;;;;;4949119;28;20779;-65
2022/10/11 04:05:47;;;;;;;0.10;0.10;;;9.20;99.90;;;;;;4949855;28;20233;-69
2022/10/11 04:08:14;;;;;;;0.00;0.00;;;9.20;99.90;;;;;;4967983;28;20234;-68
2022/10/11 04:10:41;;;;;;;0.00;0.00;;;9.20;99.90;;;;;;4967829;28;20206;-68
2022/10/11 04:13:11;;;;;;;0.10;0.10;;;9.20;99.90;;;;;;4953893;28;20268;-68
2022/10/11 04:15:40;;;;;;;0.00;0.00;;;9.20;99.90;;;;;;4951274;28;20630;-68
2022/10/11 04:18:07;;;;;;;0.07;0.07;;;9.20;99.90;;;;;;4966002;28;20665;-68
2022/10/11 04:20:35;;;;;;;0.00;0.00;;;;;;;;;;4953044;28;20212;-69
2022/10/11 04:23:03;;;;;;;0.10;0.10;;;;;;;;;;4968845;28;20694;-68
2022/10/11 04:25:30;;;;;;;0.00;0.00;;;;;;;;;;4955611;28;21005;-69
2022/10/11 04:27:57;;;;;;;0.00;0.00;;;;;;;;;;4960594;28;20767;-69
2022/10/11 04:30:26;;;;;;;0.10;0.10;;;;;;;;;;4957872;28;20214;-69
2022/10/11 04:32:54;;;;;;;0.10;0.10;;;;;;;;;;4955631;28;20616;-68
2022/10/11 04:35:21;;;;;;;0.10;0.10;;;;;;;;;;4955102;28;20203;-68
2022/10/11 04:37:48;;;;;;;0.07;0.07;;;;;;;;;;4957387;28;20218;-69
2022/10/11 04:40:16;;;;;;;0.10;0.10;;;;;;;;;;4959663;28;20644;-69
2022/10/11 04:42:44;;;;;;;0.10;0.10;;;;;;;;;;4968027;28;20209;-68
2022/10/11 04:45:11;;;;;;;0.10;0.10;;;;;;;;;;4954317;28;20665;-68
2022/10/11 04:47:40;;;;;;;0.10;0.10;;;;;;;;;;4971675;28;21137;-68
2022/10/11 04:50:07;;;;;;;0.00;0.00;;;;;;;;;;4956930;28;20622;-70
2022/10/11 04:52:35;;;;;;;0.00;0.00;;;;;;;;;;4955907;28;20209;-68
2022/10/11 04:55:02;;;;;;;0.00;0.00;;;;;;;;;;4951617;28;20669;-68
2022/10/11 04:57:30;;;;;;;0.10;0.10;;;;;;;;;;4953374;28;21030;-68
2022/10/11 04:59:57;;;;;;;0.03;0.03;;;;;;;;;;4960874;28;20637;-69
2022/10/11 05:02:25;;;;;;;0.00;0.00;;;;;;;;;;4972640;28;20629;-67
2022/10/11 05:04:54;;;;;;;0.10;0.10;;;;;;;;;;4951817;28;20668;-69
2022/10/11 05:07:21;;;;;;;0.03;0.03;;;;;;;;;;4971304;28;20668;-66
2022/10/11 05:09:48;;;;;;;0.10;0.10;;;;;;;;;;4961483;28;20630;-66
2022/10/11 05:12:16;;;;;;;0.00;0.00;;;;;;;;;;4968451;28;20657;-67
2022/10/11 05:14:43;;;;;;;0.00;0.00;;;;;;;;;;4956603;28;20609;-66
2022/10/11 05:17:11;;;;;;;0.10;0.10;;;;;;;;;;4953855;28;20646;-65
2022/10/11 05:19:38;;;;;;;0.00;0.00;;;;;;;;;;4963923;28;20638;-66
2022/10/11 05:22:07;;;;;;;0.10;0.10;;;;;;;;;;4958833;28;20629;-66
2022/10/11 05:24:34;;;;;;;0.10;0.10;;;;;;;;;;4971136;28;20718;-66
2022/10/11 05:27:02;;;;;;;0.10;0.10;;;;;;;;;;4953554;28;21245;-65
2022/10/11 05:29:29;;;;;;;0.10;0.10;;;;;;;;;;4957157;28;20618;-66
2022/10/11 05:31:57;;;;;;;0.10;0.10;;;;;;;;;;4952086;28;20693;-65
2022/10/11 05:34:24;;;;;;;0.10;0.10;;;;;;;;;;4970377;28;20630;-67
2022/10/11 05:36:51;;;;;;;0.10;0.10;;;;;;;;;;4954002;28;20725;-66
2022/10/11 05:39:20;;;;;;;0.10;0.10;;;;;;;;;;4955841;28;20637;-67
2022/10/11 05:41:48;;;;;;;0.10;0.10;;;;;;;;;;4971161;28;20637;-66
2022/10/11 05:44:15;;;;;;;0.10;0.10;;;;;;;;;;4949620;28;20642;-66
2022/10/11 05:46:43;;;;;;;0.10;0.10;;;;;;;;;;4967179;28;20638;-65
2022/10/11 05:49:10;;;;;;;0.10;0.10;;;;;;;;;;4968090;28;20637;-66
2022/10/11 05:51:37;;;;;;;0.10;0.10;;;;;;;;;;4954312;28;20634;-66
2022/10/11 05:54:05;;;;;;;0.00;0.00;;;;;;;;;;4970776;28;20665;-66
2022/10/11 05:56:34;;;;;;;0.10;0.10;;;;;;;;;;4953225;28;20637;-67
2022/10/11 05:59:01;;;;;;;0.10;0.10;;;;;;;;;;4967631;28;20629;-66
2022/10/11 06:01:29;;;;;;;0.10;0.10;;;;;;;;;;4968899;28;20633;-65
2022/10/11 06:03:56;;;;;;;0.00;0.00;;;;;;;;;;4960591;28;20634;-66
2022/10/11 06:06:24;;;;;;;0.10;0.10;;;;;;;;;;4948026;28;20658;-69
2022/10/11 06:08:51;;;;;;;0.10;0.10;;;;;;;;;;4968657;28;20661;-68
2022/10/11 06:11:19;;;;;;;0.10;0.10;;;;;;;;;;4954956;28;20653;-69
2022/10/11 06:13:48;;;;;;;0.10;0.10;;;;;;;;;;4970622;28;20662;-68
2022/10/11 06:16:16;;;;;;;0.10;0.10;;;;;;;;;;4954190;28;20637;-68
2022/10/11 06:18:43;;;;;;;0.10;0.10;;;;;;;;;;4968616;28;20693;-67
2022/10/11 06:21:11;;;;;;;0.10;0.10;;;;;;;;;;4969022;28;20642;-68
2022/10/11 06:23:39;;;;;;;0.10;0.10;;;;;;;;;;4952020;28;20622;-68
2022/10/11 06:26:08;;;;;;;0.00;0.00;;;;;;;;;;4965117;28;20662;-67
2022/10/11 06:28:36;;;;;;;0.00;0.00;;;;;;;;;;4950572;28;21016;-67
2022/10/11 06:31:06;;;;;;;0.10;0.10;;;;;;;;;;4967889;28;20630;-67
2022/10/11 06:33:34;;;;;;;0.10;0.10;;;;;;;;;;4954386;28;20688;-68
2022/10/11 06:36:02;;;;;;;0.10;0.10;;;;;;;;;;4954185;28;20644;-68
2022/10/11 06:38:29;;;;;;;0.10;0.10;;;;;;;;;;4952668;28;20649;-69
2022/10/11 06:40:56;;;;;;;0.10;0.10;;;;;;;;;;4960242;28;20626;-68
2022/10/11 06:43:24;;;;;;;0.10;0.10;;;;;;;;;;4954429;28;20660;-68
2022/10/11 06:45:51;;;;;;;0.10;0.10;;;;;;;;;;4954413;28;20652;-68
2022/10/11 06:48:20;;;;;;;0.10;0.10;;;;;;;;;;4959551;28;20661;-67
2022/10/11 06:50:47;;;;;;;0.10;0.10;;;;;;;;;;4953397;28;20630;-67
2022/10/11 06:53:15;;;;;;;0.10;0.10;;;;;;;;;;4953076;28;20613;-68
2022/10/11 06:55:42;;;;;;;0.10;0.10;;;;;;;;;;4951514;28;20640;-68
2022/10/11 06:58:10;;;;;;;0.10;0.10;;;;;;;;;;4967500;28;20688;-68
2022/10/11 07:00:37;;;;;;;0.00;0.00;;;;;;;;;;4958808;28;20695;-68
2022/10/11 07:03:04;;;;;;;0.10;0.10;;;;;;;;;;4951781;28;20629;-68
2022/10/11 07:05:34;;;;;;;0.10;0.10;;;;;;;;;;4951721;28;20657;-68
2022/10/11 07:08:02;;;;;;;0.10;0.10;;;;;;;;;;4969863;28;20711;-68
2022/10/11 07:10:29;;;;;;;0.10;0.10;;;;;;;;;;4951024;28;20642;-68
2022/10/11 07:12:57;;;;;;;0.10;0.10;;;;;;;;;;4958814;28;20237;-67
2022/10/11 07:15:24;;;;;;;0.10;0.10;;;;;;;;;;4969960;28;20626;-67
2022/10/11 07:17:52;;;;;;;0.10;0.10;;;;;;;;;;4954411;28;21245;-68
2022/10/11 07:20:19;;;;;;;0.10;0.10;;;;;;;;;;4947061;28;20207;-67
2022/10/11 07:22:48;;;;;;;0.10;0.10;;;;;;;;;;4948195;28;20225;-67
2022/10/11 07:25:16;;;;;;;0.10;0.10;;;;;;;;;;4950559;28;20234;-67
2022/10/11 07:27:43;;;;;;;0.10;0.10;;;;;;;;;;4955368;28;20218;-68
2022/10/11 07:30:11;;;;;;;0.00;0.00;;;;;;;;;;4948984;28;20210;-68
2022/10/11 07:32:38;;;;;;;0.10;0.10;;;;;;;;;;4952536;28;20280;-67
2022/10/11 07:35:06;;;;;;;0.00;0.00;;;;;;;;;;4968656;28;20203;-68
2022/10/11 07:37:34;;;;;;;0.10;0.10;;;;;;;;;;4967096;28;20229;-68
2022/10/11 07:40:02;;;;;;;0.00;0.00;;;;;;;;;;4954361;28;20209;-68
2022/10/11 07:42:30;;;;;;;0.10;0.10;;;;;;;;;;4954554;28;20265;-68
2022/10/11 07:44:57;;;;;;;0.10;0.10;;;;;;;;;;4953840;28;20260;-68
2022/10/11 07:47:24;;;;;;;0.10;0.10;;;;;;;;;;4953398;28;20214;-69
2022/10/11 07:49:52;;;;;;;0.10;0.10;;;;;;;;;;4953050;28;20193;-68
2022/10/11 07:52:19;;;;;;;0.10;0.10;;;;;;;;;;4950390;28;20359;-68
2022/10/11 07:54:48;;;;;;;0.10;0.10;;;;;;;;;;4953670;28;20205;-69
2022/10/11 07:57:17;;;;;;;0.00;0.00;;;;;;;;;;4957023;28;20293;-67
2022/10/11 07:59:44;;;;;;;0.10;0.10;;;;;;;;;;4952221;28;20229;-68
2022/10/11 08:02:13;;;;;;;0.10;0.10;;;;;;;;;;4955575;28;20265;-68
2022/10/11 08:04:40;;;;;;;0.00;0.00;;;;;;;;;;4954769;28;20206;-67
2022/10/11 08:07:08;;;;;;;0.10;0.10;;;;;;;;;;4953012;28;20233;-68
2022/10/11 08:09:35;;;;;;;0.00;0.00;;;;;;;;;;4968849;28;20197;-68
2022/10/11 08:12:02;;;;;;;0.10;0.10;;;;;;;;;;4954255;28;20201;-70
2022/10/11 08:14:31;;;;;;;0.07;0.07;;;;;;;;;;4953434;28;20197;-68
2022/10/11 08:16:58;;;;;;;0.10;0.10;;;;;;;;;;4958589;28;20218;-68
2022/10/11 08:19:26;;;;;;;0.10;0.10;;;;;;;;;;4952115;28;20207;-68
2022/10/11 08:21:53;;;;;;;0.00;0.00;;;;;;;;;;4966518;28;20213;-69
2022/10/11 08:24:21;;;;;;;0.10;0.10;;;;;;;;;;4966857;28;20222;-69
2022/10/11 08:26:49;;;;;;;0.00;0.00;;;;;;;;;;4954744;28;20226;-68
2022/10/11 08:29:16;;;;;;;0.03;0.03;;;;;;;;;;4952224;28;20198;-68
2022/10/11 08:31:45;;;;;;;0.00;0.00;;;;;;;;;;4953467;28;20238;-68
2022/10/11 08:34:12;;;;;;;0.00;0.00;;;;;;;;;;4966785;28;20214;-69
2022/10/11 08:36:39;;;;;;;0.00;0.00;;;;;;;;;;4950186;28;20203;-69
2022/10/11 08:39:07;;;;;;;0.03;0.03;;;;;;;;;;4968132;28;20214;-68
2022/10/11 08:41:39;;;;;;;0.00;0.00;;;;;;;;;;4957502;28;20209;-69
2022/10/11 08:44:12;;;;;;;0.00;0.00;;;;;;;;;;4952731;28;20213;-68
2022/10/11 08:46:40;;;;;;;0.10;0.10;;;;;;;;;;4967123;28;20296;-69
2022/10/11 08:49:12;;;;;;;0.10;0.10;;;;;;;;;;4952639;28;20206;-68
2022/10/11 08:51:42;;;;;;;0.00;0.00;;;;;;;;;;4969992;28;20316;-70
2022/10/11 08:54:14;;;;;;;0.10;0.10;;;;;;;;;;4953547;28;20230;-68
2022/10/11 08:56:42;;;;;;;0.00;0.00;;;;;;;;;;4954453;28;20194;-69
2022/10/11 08:59:18;;;;;;;0.00;0.00;;;;;;;;;;4966143;28;20209;-70
2022/10/11 09:01:48;;;;;;;0.10;0.10;;;;;;;;;;4952690;28;20201;-69
2022/10/11 09:04:18;;;;;;;0.10;0.10;;;;;;;;;;4952159;28;20234;-68
2022/10/11 09:06:50;;;;;;;0.03;0.03;;;;;;;;;;4955358;28;20219;-70
2022/10/11 09:09:26;;;;;;;0.10;0.10;;;;;;;;;;4970353;28;20206;-68
2022/10/11 09:12:01;;;;;;;0.10;0.10;;;;;;;;;;4954657;28;20222;-69
2022/10/11 09:14:35;;;;;;;0.00;0.00;;;;;;;;;;4956854;28;20276;-71
2022/10/11 09:17:05;;;;;;;0.10;0.10;;;;;;;;;;4956275;28;21195;-70
2022/10/11 09:19:47;;;;;;;0.00;0.00;;;;;;;;;;4970428;28;20206;-68
2022/10/11 09:22:17;;;;;;;0.00;0.00;;;;;;;;;;4952697;28;20300;-68
2022/10/11 09:24:54;;;;;;;0.00;0.00;;;;;;;;;;4954541;28;20207;-70
2022/10/11 09:27:24;;;;;;;0.07;0.07;;;;;;;;;;4954105;28;20255;-68
2022/10/11 09:29:57;;;;;;;0.00;0.00;;;;;;;;;;4973113;28;20235;-70
2022/10/11 09:32:28;;;;;;;0.00;0.00;;;;;;;;;;4967926;28;20238;-70
2022/10/11 09:35:00;;;;;;;0.00;0.00;;;;;;;;;;4952076;28;20226;-70
2022/10/11 09:37:31;;;;;;;0.00;0.00;;;;;;;;;;4971070;28;20230;-71
2022/10/11 09:40:06;;;;;;;0.00;0.00;;;;;;;;;;4954494;28;20679;-71
2022/10/11 09:42:34;;;;;;;0.00;0.00;;;;;;;;;;4960238;28;20304;-70
2022/10/11 09:45:01;;;;;;;0.00;0.00;;;;;;;;;;4949150;28;20218;-70
2022/10/11 09:47:30;;;;;;;0.00;0.00;;;;;;;;;;4953392;28;20313;-71
2022/10/11 09:49:59;;;;;;;0.00;0.00;;;;;;;;;;4954904;28;20218;-69
2022/10/11 09:52:27;;;;;;;0.00;0.00;;;;;;;;;;4955981;28;20210;-71
2022/10/11 09:54:55;;;;;;;0.00;0.00;;;;;;;;;;4969013;28;20274;-69
2022/10/11 09:57:24;;;;;;;0.00;0.00;;;;;;;;;;4953827;28;20222;-68
2022/10/11 09:59:58;;;;;;;0.00;0.00;;;;;;;;;;4950803;28;20202;-68
2022/10/11 10:02:26;;;;;;;0.00;0.00;;;;;;;;;;4968881;28;20221;-70
2022/10/11 10:04:59;;;;;;;0.00;0.00;;;;;;;;;;4970056;28;20202;-71
2022/10/11 10:07:27;;;;;;;0.00;0.00;;;;;;;;;;4970209;28;20242;-70
2022/10/11 10:09:54;;;;;;;0.00;0.00;;;;;;;;;;4953535;28;20202;-70
2022/10/11 10:12:24;;;;;;;0.00;0.00;;;;;;;;;;4966139;28;20309;-70
2022/10/11 10:14:56;;;;;;;0.00;0.00;;;;;;;;;;4960906;28;20284;-70
2022/10/11 10:17:23;;;;;;;0.00;0.00;;;;;;;;;;4969177;28;20233;-70
2022/10/11 10:19:52;;;;;;;0.00;0.00;;;;;;;;;;4959149;28;20241;-71
2022/10/11 10:22:21;;;;;;;0.00;0.00;;;;;;;;;;4953577;28;20367;-68
2022/10/11 10:24:50;;;;;;;0.00;0.00;;;;;;;;;;4954189;28;20293;-70
2022/10/11 10:27:22;;;;;;;0.00;0.00;;;;;;;;;;4967359;28;20304;-69
2022/10/11 10:30:02;;;;;;;0.00;0.00;;;;;;;;;;4968693;28;20217;-69
2022/10/11 10:32:33;;;;;;;0.00;0.00;;;;;;;;;;4968564;28;20272;-69
2022/10/11 10:35:04;;;;;;;0.00;0.00;;;;;;;;;;4952246;28;20207;-70
2022/10/11 10:37:35;;;;;;;0.00;0.00;;;;;;;;;;4961231;28;20236;-70
2022/10/11 10:40:04;;;;;;;0.00;0.00;;;;;;;;;;4970949;28;20206;-70
2022/10/11 10:42:31;;;;;;;0.00;0.00;;;;;;;;;;4967127;28;20257;-68
2022/10/11 10:44:59;;;;;;;0.00;0.00;;;;;;;;;;4956845;28;20206;-69
2022/10/11 10:47:43;;;;;;;0.00;0.00;;;;;;;;;;4959041;28;20223;-69
2022/10/11 10:50:14;;;;;;;0.00;0.00;;;;;;;;;;4951125;28;20237;-70
2022/10/11 10:52:47;;;;;;;0.00;0.00;;;;;;;;;;4968419;28;20218;-70
2022/10/11 10:55:20;;;;;;;0.00;0.00;;;;;;;;;;4965687;28;20209;-69
2022/10/11 10:57:54;;;;;;;0.00;0.00;;;;;;;;;;4968594;28;20330;-71
2022/10/11 11:00:22;;;;;;;0.00;0.00;;;;;;;;;;4955342;28;20210;-67
2022/10/11 11:02:53;;;;;;;0.00;0.00;;;;;;;;;;4949949;28;20201;-67
2022/10/11 11:05:26;;;;;;;0.00;0.00;;;;;;;;;;4956176;28;20214;-69
2022/10/11 11:08:00;;;;;;;0.10;0.10;;;;;;;;;;4952861;28;20234;-69
2022/10/11 11:10:30;;;;;;;0.00;0.00;;;;;;;;;;4966683;28;20264;-69
2022/10/11 11:13:03;;;;;;;0.00;0.00;;;;;;;;;;4967169;28;20238;-69
2022/10/11 11:15:35;;;;;;;0.00;0.00;;;;;;;;;;4967574;28;20242;-69
2022/10/11 11:18:15;;;;;;;0.00;0.00;;;;;;;;;;4958681;28;20727;-69
2022/10/11 11:20:50;;;;;;;0.00;0.00;;;;;;;;;;4950535;28;20207;-68
2022/10/11 11:23:22;;;;;;;0.00;0.00;;;;;;;;;;4958266;28;20269;-68
2022/10/11 11:25:56;;;;;;;0.00;0.00;;;;;;;;;;4967524;28;20201;-68
2022/10/11 11:28:28;;;;;;;0.00;0.00;;;;;;;;;;4967678;28;20214;-69
2022/10/11 11:30:59;;;;;;;0.00;0.00;;;;;;;;;;4950999;28;20194;-70
2022/10/11 11:33:31;;;;;;;0.00;0.00;;;;;;;;;;4950156;28;20206;-69
2022/10/11 11:36:02;;;;;;;0.03;0.03;;;;;;;;;;4953510;28;20198;-68
2022/10/11 11:38:34;;;;;;;0.10;0.10;;;;;;;;;;4969782;28;20253;-66
2022/10/11 11:41:04;;;;;;;0.00;0.00;;;;;;;;;;4950792;28;20581;-66
2022/10/11 11:43:34;;;;;;;0.00;0.00;;;;;;;;;;4967626;28;20223;-67
2022/10/11 11:46:05;;;;;;;0.00;0.00;;;;;;;;;;4956750;28;20743;-66
2022/10/11 11:48:33;;;;;;;0.00;0.00;;;;;;;;;;4966816;28;20222;-67
2022/10/11 11:51:03;;;;;;;0.00;0.00;;;;;;;;;;4968448;28;20238;-65
2022/10/11 11:53:41;;;;;;;0.00;0.00;;;;;;;;;;4967232;28;20211;-67
2022/10/11 11:56:10;;;;;;;0.00;0.00;;;;;;;;;;4951214;28;20211;-66
2022/10/11 11:58:41;;;;;;;0.00;0.00;;;;;;;;;;4957655;28;20242;-66
2022/10/11 12:01:15;;;;;;;0.00;0.00;;;;;;;;;;4954777;28;20256;-66
2022/10/11 12:03:44;;;;;;;0.00;0.00;;;;;;;;;;4954145;28;20256;-66
2022/10/11 12:06:26;;;;;;;0.00;0.00;;;;;;;;;;4951733;28;20321;-66
2022/10/11 12:09:07;;;;;;;0.00;0.00;;;;;;;;;;4968744;28;20284;-66
2022/10/11 12:11:49;;;;;;;0.00;0.00;;;;;;;;;;4953271;28;20288;-65
2022/10/11 12:14:18;;;;;;;0.00;0.00;;;;;;;;;;4967158;28;20210;-68
2022/10/11 12:17:04;;;;;;;0.00;0.00;;;;;;;;;;4968546;28;20195;-68
2022/10/11 12:19:31;;;;;;;0.00;0.00;;;;;;;;;;4969061;28;20238;-65
2022/10/11 12:22:14;;;;;;;0.00;0.00;;;;;;;;;;4950277;28;20202;-67
2022/10/11 12:24:54;;;;;;;0.00;0.00;;;;;;;;;;4954032;28;20448;-67
2022/10/11 12:27:39;;;;;;;0.00;0.00;;;;;;;;;;4967038;28;20238;-68
2022/10/11 12:30:29;;;;;;;0.00;0.00;;;;;;;;;;4950134;28;20207;-66
2022/10/11 12:33:06;;;;;;;0.00;0.00;;;;;;;;;;4962500;28;20205;-67
2022/10/11 12:36:01;;;;;;;0.00;0.00;;;;;;;;;;4970967;28;20206;-66
2022/10/11 12:38:29;;;;;;;0.00;0.00;;;;;;;;;;4953090;28;20222;-68
2022/10/11 12:41:00;;;;;;;0.00;0.00;;;;;;;;;;4968469;28;20198;-68
2022/10/11 12:43:36;;;;;;;0.00;0.00;;;;;;;;;;4957083;28;20203;-68
2022/10/11 12:46:21;;;;;;;0.00;0.00;;;;;;;;;;4958523;28;20216;-68
2022/10/11 12:48:53;;;;;;;0.00;0.00;;;;;;;;;;4973538;28;20271;-69
2022/10/11 12:51:38;;;;;;;0.00;0.00;;;;;;;;;;4967411;28;20257;-68
2022/10/11 12:54:30;;;;;;;0.00;0.00;;;;;;;;;;4952656;28;20202;-67
2022/10/11 12:57:11;;;;;;;0.00;0.00;;;;;;;;;;4971316;28;20234;-68
2022/10/11 12:59:41;;;;;;;0.00;0.00;;;;;;;;;;4953570;28;20210;-67
2022/10/11 13:02:18;;;;;;;0.00;0.00;;;;;;;;;;4972633;28;20210;-68
2022/10/11 13:04:45;;;;;;;0.00;0.00;;;;;;;;;;4971906;28;20206;-67
2022/10/11 13:07:14;;;;;;;0.00;0.00;;;;;;;;;;4972280;28;20358;-68
2022/10/11 13:09:43;;;;;;;0.00;0.00;;;;;;;;;;4972183;28;20233;-67
2022/10/11 13:12:15;;;;;;;0.00;0.00;;;;;;;;;;4958383;28;20394;-67
2022/10/11 13:14:43;;;;;;;0.00;0.00;;;;;;;;;;4970601;28;20224;-67
2022/10/11 13:17:16;;;;;;;0.00;0.00;;;;;;;;;;4971434;28;20565;-67
2022/10/11 13:19:44;;;;;;;0.00;0.00;;;;;;;;;;4968670;28;20210;-68
2022/10/11 13:22:17;;;;;;;0.00;0.00;;;;;;;;;;4954993;28;20292;-67
2022/10/11 13:24:45;;;;;;;0.00;0.00;;;;;;;;;;4954138;28;20289;-67
2022/10/11 13:27:17;;;;;;;0.00;0.00;;;;;;;;;;4966712;28;20245;-68
2022/10/11 13:29:46;;;;;;;0.00;0.00;;;;;;;;;;4966056;28;20213;-68
2022/10/11 13:32:15;;;;;;;0.00;0.00;;;;;;;;;;4968303;28;20312;-67
2022/10/11 13:34:45;;;;;;;0.00;0.00;;;;;;;;;;4954991;28;20310;-67
2022/10/11 13:37:16;;;;;;;0.00;0.00;;;;;;;;;;4955085;28;20214;-69
2022/10/11 13:39:44;;;;;;;0.00;0.00;;;;;;;;;;4970240;28;20207;-67
2022/10/11 13:42:12;;;;;;;0.00;0.00;;;;;;;;;;4953761;28;20202;-67
2022/10/11 13:44:42;;;;;;;0.00;0.00;;;;;;;;;;4954477;28;20206;-67
2022/10/11 13:47:12;;;;;;;0.00;0.00;;;;;;;;;;4953057;28;20416;-67
2022/10/11 13:49:39;;;;;;;0.00;0.00;;;;;;;;;;4951837;28;20206;-67
2022/10/11 13:52:19;;;;;;;0.00;0.00;;;;;;;;;;4956568;28;20683;-67
2022/10/11 13:54:57;;;;;;;0.00;0.00;;;;;;;;;;4969533;28;20204;-67
2022/10/11 13:57:33;;;;;;;0.00;0.00;;;;;;;;;;4953852;28;20297;-66
2022/10/11 14:00:03;;;;;;;0.00;0.00;;;;;;;;;;4972016;28;20284;-66
2022/10/11 14:02:39;;;;;;;0.00;0.00;;;;;;;;;;4953927;28;20202;-67
2022/10/11 14:05:07;;;;;;;0.00;0.00;;;;;;;;;;4969582;28;20218;-66
2022/10/11 14:07:36;;;;;;;0.00;0.00;;;;;;;;;;4954740;28;20218;-66
2022/10/11 14:10:05;;;;;;;0.00;0.00;;;;;;;;;;4969452;28;20280;-67
2022/10/11 14:12:34;;;;;;;0.00;0.00;;;;;;;;;;4950546;28;20202;-67
2022/10/11 14:15:03;;;;;;;0.00;0.00;;;;;;;;;;4953032;28;20215;-67
2022/10/11 14:17:38;;;;;;;0.00;0.00;;;;;;;;;;4966969;28;20285;-67
2022/10/11 14:20:09;;;;;;;0.00;0.00;;;;;;;;;;4965744;28;20242;-67
2022/10/11 14:22:37;;;;;;;0.00;0.00;;;;;;;;;;4966178;28;20213;-66
2022/10/11 14:25:05;;;;;;;0.00;0.00;;;;;;;;;;4952760;28;20209;-67
2022/10/11 14:27:32;;;;;;;0.00;0.00;;;;;;;;;;4951720;28;20712;-66
2022/10/11 14:30:00;;;;;;;0.00;0.00;;;;;;;;;;4952314;28;20214;-66
2022/10/11 14:32:31;;;;;;;0.00;0.00;;;;;;;;;;4948248;28;20199;-67
2022/10/11 14:34:59;;;;;;;0.00;0.00;;;;;;;;;;4948456;28;20265;-67
2022/10/11 14:37:26;;;;;;;0.00;0.00;;;;;;;;;;4948641;28;20210;-67
2022/10/11 14:39:53;;;;;;;0.00;0.00;;;;;;;;;;4960493;28;20292;-67
2022/10/11 14:42:21;;;;;;;0.00;0.00;;;;;;;;;;4948986;28;20231;-66
2022/10/11 14:44:48;;;;;;;0.00;0.00;;;;;;;;;;4952636;28;20211;-67
2022/10/11 14:47:17;;;;;;;0.00;0.00;;;;;;;;;;4966563;28;20304;-67
2022/10/11 14:49:45;;;;;;;0.00;0.00;;;;;;;;;;4952912;28;20203;-67
2022/10/11 14:52:14;;;;;;;0.00;0.00;;;;;;;;;;4952664;28;20675;-67
2022/10/11 14:54:41;;;;;;;0.00;0.00;;;;;;;;;;4969473;28;20202;-65
2022/10/11 14:57:11;;;;;;;0.00;0.00;;;;;;;;;;4953279;28;20221;-67